Time;durP1;ratioP1;P1;durP2;ratioP2;P2;SDS_P1;SDS_P2;PMS_P1;PMS_P2;Temp;Humidity;BMP_temperature;BMP_pressure;BME280_temperature;BME280_humidity;BME280_pressure;Samples;Min_cycle;Max_cycle;Signal;HPM_P1;HPM_P2
2022/11/04 00:01:58;;;;;;;;;;;;;;;12.79;71.21;99150.22;5076646;28;19947;-69
2022/11/04 00:04:27;;;;;;;;;;;;;;;12.81;71.25;99156.19;5077020;28;19925;-69
2022/11/04 00:06:56;;;;;;;;;;;;;;;12.81;70.99;99158.75;5076624;28;20282;-69
2022/11/04 00:09:26;;;;;;;;;;;;;;;12.83;70.87;99157.00;5076302;28;20275;-70
2022/11/04 00:14:33;;;;;;;;;;;;;;;12.80;71.16;99167.31;5076182;28;19931;-66
2022/11/04 00:30:16;;;;;;;;;;;;;;;12.68;71.54;99147.03;5075980;28;19924;-71
2022/11/04 00:35:24;;;;;;;;;;;;;;;12.62;72.05;99145.41;5075862;28;19928;-69
2022/11/04 00:37:52;;;;;;;;;;;;;;;12.59;72.57;99117.34;5074511;28;19925;-70
2022/11/04 00:40:21;;;;;;;;;;;;;;;12.60;72.39;99118.16;5076312;28;20378;-73
2022/11/04 00:42:49;;;;;;;;;;;;;;;12.56;72.37;99111.41;5076026;28;19924;-71
2022/11/04 00:45:18;;;;;;;;;;;;;;;12.56;72.36;99116.53;5075608;28;19928;-71
2022/11/04 00:47:47;;;;;;;;;;;;;;;12.58;72.38;99112.22;5075910;28;19932;-70
2022/11/04 00:50:16;;;;;;;;;;;;;;;12.58;72.51;99119.91;5075792;28;20332;-69
2022/11/04 00:52:44;;;;;;;;;;;;;;;12.57;72.42;99118.22;5075448;28;19929;-70
2022/11/04 00:55:12;;;;;;;;;;;;;;;12.56;72.48;99103.72;5075511;28;19928;-71
2022/11/04 00:57:41;;;;;;;;;;;;;;;12.56;72.55;99096.06;5075395;28;19931;-70
2022/11/04 01:00:10;;;;;;;;;;;;;;;12.52;72.85;99110.63;5075295;28;19971;-70
2022/11/04 01:02:38;;;;;;;;;;;;;;;12.51;72.78;99097.84;5075252;28;19924;-71
2022/11/04 01:05:09;;;;;;;;;;;;;;;12.51;73.20;99097.84;5075395;28;19925;-71
2022/11/04 01:07:37;;;;;;;;;;;;;;;12.51;72.98;99102.97;5075176;28;20436;-70
2022/11/04 01:10:11;;;;;;;;;;;;;;;12.48;72.77;99077.41;5075461;28;19925;-70
2022/11/04 01:12:39;;;;;;;;;;;;;;;12.45;72.87;99087.72;5075411;28;19931;-70
2022/11/04 01:15:08;;;;;;;;;;;;;;;12.41;73.36;99091.19;5074927;28;19932;-70
2022/11/04 01:17:36;;;;;;;;;;;;;;;12.35;73.57;99091.31;5075267;28;19924;-67
2022/11/04 01:20:04;;;;;;;;;;;;;;;12.34;73.91;99074.25;5074947;28;19937;-70
2022/11/04 01:22:34;;;;;;;;;;;;;;;12.34;73.78;99079.38;5074671;28;19924;-70
2022/11/04 01:25:03;;;;;;;;;;;;;;;12.33;73.96;99067.47;5075037;28;20437;-70
2022/11/04 01:27:31;;;;;;;;;;;;;;;12.31;74.05;99049.56;5075091;28;19931;-70
2022/11/04 01:29:59;;;;;;;;;;;;;;;12.28;74.31;99044.53;5075083;28;19924;-72
2022/11/04 01:32:29;;;;;;;;;;;;;;;12.28;73.99;99046.25;5075061;28;19973;-70
2022/11/04 01:34:57;;;;;;;;;;;;;;;12.25;74.11;99041.16;5074519;28;19974;-70
2022/11/04 01:37:26;;;;;;;;;;;;;;;12.24;74.18;99031.81;5074418;28;19932;-71
2022/11/04 01:39:57;;;;;;;;;;;;;;;12.20;74.27;99025.06;5074500;28;19929;-69
2022/11/04 01:42:27;;;;;;;;;;;;;;;12.17;74.56;99025.94;5074609;28;19924;-70
2022/11/04 01:44:57;;;;;;;;;;;;;;;12.16;74.45;99013.19;5074700;28;20366;-70
2022/11/04 01:47:28;;;;;;;;;;;;;;;12.13;74.63;99003.00;5074618;28;20333;-70
2022/11/04 01:50:01;;;;;;;;;;;;;;;12.09;74.83;99013.28;5074674;28;20336;-71
2022/11/04 01:52:33;;;;;;;;;;;;;;;12.07;74.90;99003.97;5074366;28;20326;-71
2022/11/04 01:55:07;;;;;;;;;;;;;;;12.08;74.95;99003.09;5074355;28;19932;-70
2022/11/04 01:57:38;;;;;;;;;;;;;;;12.05;74.80;98996.31;5074392;28;20334;-69
2022/11/04 02:00:08;;;;;;;;;;;;;;;12.04;75.02;98994.63;5074235;28;19932;-71
2022/11/04 02:02:49;;;;;;;;;;;;;;;12.07;74.92;98975.81;5074770;28;19964;-71
2022/11/04 02:05:18;;;;;;;;;;;;;;;12.04;74.89;98966.50;5074720;28;20282;-71
2022/11/04 02:07:50;;;;;;;;;;;;;;;12.03;74.72;98962.25;5073848;28;19947;-70
2022/11/04 02:10:22;;;;;;;;;;;;;;;12.03;74.54;98972.50;5074160;28;19974;-70
2022/11/04 02:12:50;;;;;;;;;;;;;;;12.05;74.60;98975.00;5074403;28;20397;-71
2022/11/04 02:15:23;;;;;;;;;;;;;;;12.06;74.58;98984.38;5074412;28;19946;-70
2022/11/04 02:18:06;;;;;;;;;;;;;;;12.03;74.34;98982.72;5073978;28;19932;-71
2022/11/04 02:20:45;;;;;;;;;;;;;;;12.04;74.20;98970.78;5074073;28;19928;-71
2022/11/04 02:23:32;;;;;;;;;;;;;;;12.02;74.06;98960.56;5074334;28;20002;-71
2022/11/04 02:26:15;;;;;;;;;;;;;;;12.01;74.12;98969.13;5072826;28;19952;-70
2022/11/04 02:28:54;;;;;;;;;;;;;;;12.05;73.88;98962.22;5073923;28;20424;-70
2022/11/04 02:31:32;;;;;;;;;;;;;;;12.06;73.61;98961.38;5072695;28;20338;-70
2022/11/04 02:34:05;;;;;;;;;;;;;;;12.10;73.45;98953.59;5073922;28;19924;-71
2022/11/04 02:36:39;;;;;;;;;;;;;;;12.09;73.20;98951.91;5073852;28;19924;-71
2022/11/04 02:39:12;;;;;;;;;;;;;;;12.10;73.13;98943.38;5073823;28;19931;-71
2022/11/04 02:41:45;;;;;;;;;;;;;;;12.06;73.13;98948.56;5074179;28;20328;-71
2022/11/04 02:44:18;;;;;;;;;;;;;;;12.07;72.97;98951.09;5073811;28;19925;-71
2022/11/04 02:46:49;;;;;;;;;;;;;;;12.12;72.90;98945.06;5073794;28;19956;-70
2022/11/04 02:49:20;;;;;;;;;;;;;;;12.13;72.70;98941.63;5074005;28;20293;-70
2022/11/04 02:51:51;;;;;;;;;;;;;;;12.14;72.24;98944.16;5074107;28;19925;-69
2022/11/04 02:54:24;;;;;;;;;;;;;;;12.17;72.00;98938.13;5074311;28;20324;-70
2022/11/04 02:56:54;;;;;;;;;;;;;;;12.20;72.18;98938.06;5072784;28;20321;-71
2022/11/04 02:59:26;;;;;;;;;;;;;;;12.20;71.76;98932.97;5073961;28;19932;-71
2022/11/04 03:01:58;;;;;;;;;;;;;;;12.20;71.61;98930.41;5073913;28;20329;-71
2022/11/04 03:04:30;;;;;;;;;;;;;;;12.18;71.74;98934.72;5073990;28;19925;-69
2022/11/04 03:07:00;;;;;;;;;;;;;;;12.18;72.06;98927.88;5073629;28;20321;-70
2022/11/04 03:09:30;;;;;;;;;;;;;;;12.17;71.84;98922.78;5073482;28;19925;-71
2022/11/04 03:12:02;;;;;;;;;;;;;;;12.14;71.88;98926.22;5073901;28;19925;-70
2022/11/04 03:14:34;;;;;;;;;;;;;;;12.15;71.93;98939.88;5073522;28;19925;-69
2022/11/04 03:17:06;;;;;;;;;;;;;;;12.15;71.89;98937.31;5073520;28;19970;-70
2022/11/04 03:19:40;;;;;;;;;;;;;;;12.19;72.39;98932.09;5076350;28;19924;-71
2022/11/04 03:22:10;;;;;;;;;;;;;;;12.22;72.00;98932.06;5076938;28;20010;-70
2022/11/04 03:24:40;;;;;;;;;;;;;;;12.25;72.43;98920.94;5077142;28;19931;-71
2022/11/04 03:27:14;;;;;;;;;;;;;;;12.27;72.42;98903.81;5077450;28;19924;-71
2022/11/04 03:29:47;;;;;;;;;;;;;;;12.27;72.15;98899.56;5077025;28;19991;-71
2022/11/04 03:32:22;;;;;;;;;;;;;;;12.32;72.32;98891.78;5077016;28;19924;-71
2022/11/04 03:34:51;;;;;;;;;;;;;;;12.38;72.26;98889.13;5077297;28;19929;-71
2022/11/04 03:37:20;;;;;;;;;;;;;;;12.38;72.05;98891.69;5076735;28;19986;-70
2022/11/04 03:39:48;;;;;;;;;;;;;;;12.39;71.88;98878.00;5076779;28;19925;-71
2022/11/04 03:42:21;;;;;;;;;;;;;;;12.43;72.13;98887.31;5076703;28;20413;-67
2022/11/04 03:44:50;;;;;;;;;;;;;;;12.47;71.81;98881.25;5077108;28;19928;-70
2022/11/04 03:47:22;;;;;;;;;;;;;;;12.45;72.16;98873.56;5076697;28;19924;-71
2022/11/04 03:49:51;;;;;;;;;;;;;;;12.47;71.62;98879.53;5076961;28;20005;-71
2022/11/04 03:52:20;;;;;;;;;;;;;;;12.48;71.69;98872.66;5076557;28;19924;-70
2022/11/04 03:54:48;;;;;;;;;;;;;;;12.49;71.76;98874.38;5076554;28;19925;-70
2022/11/04 03:57:20;;;;;;;;;;;;;;;12.48;71.46;98870.09;5076506;28;19928;-71
2022/11/04 04:00:00;;;;;;;;;;;;;;;12.50;71.49;98860.72;5076545;28;19924;-70
2022/11/04 04:02:39;;;;;;;;;;;;;;;12.54;71.29;98867.44;5076336;28;19924;-71
2022/11/04 04:05:11;;;;;;;;;;;;;;;12.55;71.18;98852.03;5076423;28;19924;-70
2022/11/04 04:07:50;;;;;;;;;;;;;;;12.58;71.48;98863.91;5076387;28;19924;-71
2022/11/04 04:13:01;;;;;;;;;;;;;;;12.56;71.57;98878.47;5076371;28;19924;-72
2022/11/04 04:15:36;;;;;;;;;;;;;;;12.53;71.58;98865.75;5076590;28;19924;-70
2022/11/04 04:18:08;;;;;;;;;;;;;;;12.54;71.86;98870.00;5076437;28;20370;-71
2022/11/04 04:20:38;;;;;;;;;;;;;;;12.52;71.94;98858.94;5076196;28;19925;-71
2022/11/04 04:28:31;;;;;;;;;;;;;;;12.62;71.52;98857.88;5076040;28;19931;-71
2022/11/04 04:31:00;;;;;;;;;;;;;;;12.69;71.35;98867.09;5075438;28;20298;-70
2022/11/04 04:33:29;;;;;;;;;;;;;;;12.70;71.12;98855.97;5075818;28;19978;-71
2022/11/04 04:35:58;;;;;;;;;;;;;;;12.71;71.03;98855.09;5076144;28;19931;-72
2022/11/04 04:46:29;;;;;;;;;;;;;;;12.84;70.92;98861.63;5075659;28;20016;-69
2022/11/04 04:49:05;;;;;;;;;;;;;;;12.84;70.60;98856.50;5075511;28;19932;-70
2022/11/04 04:51:35;;;;;;;;;;;;;;;12.82;71.08;98858.25;5075527;28;19924;-69
2022/11/04 04:54:03;;;;;;;;;;;;;;;12.77;70.99;98857.50;5075725;28;19925;-70
2022/11/04 04:56:32;;;;;;;;;;;;;;;12.76;71.07;98854.09;5075384;28;19932;-70
2022/11/04 04:59:00;;;;;;;;;;;;;;;12.77;71.43;98848.13;5075592;28;20018;-69
2022/11/04 05:01:28;;;;;;;;;;;;;;;12.79;71.16;98851.47;5075263;28;19931;-70
2022/11/04 05:03:57;;;;;;;;;;;;;;;12.84;71.29;98861.63;5075939;28;20382;-70
2022/11/04 05:06:27;;;;;;;;;;;;;;;12.88;71.26;98868.38;5075050;28;19932;-71
2022/11/04 05:08:55;;;;;;;;;;;;;;;12.88;71.18;98872.66;5075155;28;19932;-71
2022/11/04 05:11:23;;;;;;;;;;;;;;;12.90;70.95;98869.19;5075739;28;20362;-71
2022/11/04 05:13:55;;;;;;;;;;;;;;;12.88;70.87;98876.06;5075051;28;19925;-71
2022/11/04 05:16:23;;;;;;;;;;;;;;;12.81;70.90;98871.97;5075318;28;19947;-70
2022/11/04 05:18:51;;;;;;;;;;;;;;;12.73;71.60;98868.72;5075192;28;20374;-71
2022/11/04 05:21:20;;;;;;;;;;;;;;;12.69;71.41;98859.44;5074553;28;19990;-70
2022/11/04 05:23:49;;;;;;;;;;;;;;;12.74;71.68;98857.59;5074825;28;19925;-72
2022/11/04 05:26:18;;;;;;;;;;;;;;;12.77;71.70;98862.63;5074740;28;19970;-72
2022/11/04 05:28:46;;;;;;;;;;;;;;;12.80;71.77;98862.56;5074725;28;19924;-71
2022/11/04 05:31:15;;;;;;;;;;;;;;;12.82;71.73;98863.38;5074682;28;19932;-72
2022/11/04 05:33:43;;;;;;;;;;;;;;;12.84;71.78;98861.63;5073717;28;19924;-70
2022/11/04 05:36:12;;;;;;;;;;;;;;;12.84;71.93;98861.63;5074913;28;19929;-71
2022/11/04 05:38:42;;;;;;;;;;;;;;;12.86;71.73;98870.09;5074843;28;19925;-70
2022/11/04 05:41:24;;;;;;;;;;;;;;;12.87;71.75;98868.38;5073767;28;19925;-71
2022/11/04 05:43:53;;;;;;;;;;;;;;;12.87;71.71;98856.44;5074554;28;19929;-71
2022/11/04 05:46:21;;;;;;;;;;;;;;;12.84;72.31;98861.63;5074393;28;19932;-71
2022/11/04 05:48:50;;;;;;;;;;;;;;;12.85;72.22;98862.47;5074331;28;20015;-70
2022/11/04 05:51:19;;;;;;;;;;;;;;;12.85;71.80;98855.63;5074601;28;20390;-71
2022/11/04 05:53:47;;;;;;;;;;;;;;;12.85;71.96;98858.19;5074284;28;19929;-71
2022/11/04 05:56:17;;;;;;;;;;;;;;;12.74;72.27;98860.97;5074126;28;19995;-71
2022/11/04 05:58:46;;;;;;;;;;;;;;;12.72;72.35;98861.91;5074529;28;19989;-71
2022/11/04 06:01:23;;;;;;;;;;;;;;;12.71;72.68;98839.75;5074212;28;19932;-71
2022/11/04 06:03:52;;;;;;;;;;;;;;;12.71;72.42;98842.31;5074657;28;20388;-70
2022/11/04 06:06:21;;;;;;;;;;;;;;;12.73;72.60;98840.56;5074267;28;19939;-70
2022/11/04 06:08:49;;;;;;;;;;;;;;;12.74;72.46;98844.81;5074708;28;19924;-71
2022/11/04 06:11:20;;;;;;;;;;;;;;;12.77;72.16;98839.59;5074305;28;19932;-71
2022/11/04 06:13:48;;;;;;;;;;;;;;;12.81;72.10;98838.66;5074105;28;19924;-71
2022/11/04 06:16:17;;;;;;;;;;;;;;;12.85;72.01;98837.72;5074338;28;20379;-70
2022/11/04 06:18:45;;;;;;;;;;;;;;;12.86;72.39;98839.38;5073877;28;19975;-71
2022/11/04 06:21:23;;;;;;;;;;;;;;;12.90;72.01;98841.00;5073956;28;19956;-70
2022/11/04 06:23:52;;;;;;;;;;;;;;;12.94;71.92;98840.03;5074241;28;19938;-71
2022/11/04 06:26:23;;;;;;;;;;;;;;;12.98;71.84;98844.22;5073889;28;19924;-71
2022/11/04 06:28:55;;;;;;;;;;;;;;;13.03;71.63;98856.94;5073924;28;19954;-71
2022/11/04 06:31:24;;;;;;;;;;;;;;;13.03;72.07;98857.75;5073846;28;19932;-71
2022/11/04 06:33:52;;;;;;;;;;;;;;;13.11;71.87;98861.00;5073786;28;19924;-71
2022/11/04 06:36:20;;;;;;;;;;;;;;;13.20;71.73;98865.91;5074044;28;19947;-71
2022/11/04 06:38:48;;;;;;;;;;;;;;;13.28;72.16;98866.56;5074062;28;19967;-71
2022/11/04 06:41:17;;;;;;;;;;;;;;;13.34;71.92;98863.03;5073930;28;19928;-70
2022/11/04 06:43:47;;;;;;;;;;;;;;;13.34;71.73;98861.28;5074030;28;20370;-71
2022/11/04 06:46:26;;;;;;;;;;;;;;;13.32;71.69;98864.75;5073704;28;19925;-71
2022/11/04 06:48:55;;;;;;;;;;;;;;;13.33;71.40;98857.06;5074016;28;19924;-71
2022/11/04 06:51:24;;;;;;;;;;;;;;;13.37;71.36;98853.53;5073580;28;19924;-71
2022/11/04 06:53:52;;;;;;;;;;;;;;;13.38;71.11;98854.38;5077154;28;19924;-71
2022/11/04 06:56:21;;;;;;;;;;;;;;;13.37;70.88;98858.66;5076746;28;19970;-71
2022/11/04 06:58:51;;;;;;;;;;;;;;;13.38;71.30;98855.22;5077585;28;19935;-71
2022/11/04 07:01:20;;;;;;;;;;;;;;;13.41;71.46;98854.31;5077851;28;19932;-72
2022/11/04 07:03:50;;;;;;;;;;;;;;;13.42;71.90;98848.28;5077559;28;19925;-71
2022/11/04 07:06:18;;;;;;;;;;;;;;;13.41;72.14;98850.00;5077524;28;19924;-71
2022/11/04 07:08:47;;;;;;;;;;;;;;;13.47;72.66;98859.25;5077377;28;19978;-71
2022/11/04 07:11:15;;;;;;;;;;;;;;;13.47;72.93;98854.13;5077669;28;19931;-70
2022/11/04 07:13:44;;;;;;;;;;;;;;;13.49;73.03;98856.63;5077675;28;19928;-71
2022/11/04 07:16:14;;;;;;;;;;;;;;;13.49;73.28;98857.50;5077140;28;19931;-71
2022/11/04 07:18:42;;;;;;;;;;;;;;;13.55;73.41;98861.63;5077206;28;19924;-71
2022/11/04 07:21:11;;;;;;;;;;;;;;;13.57;73.49;98859.84;5077052;28;19925;-71
2022/11/04 07:23:41;;;;;;;;;;;;;;;13.57;73.34;98859.84;5077093;28;19931;-71
2022/11/04 07:26:10;;;;;;;;;;;;;;;13.57;73.65;98859.84;5077299;28;19951;-71
2022/11/04 07:28:39;;;;;;;;;;;;;;;13.54;73.62;98854.81;5076982;28;19974;-71
2022/11/04 07:31:08;;;;;;;;;;;;;;;13.50;73.65;98860.91;5076987;28;19924;-71
2022/11/04 07:33:38;;;;;;;;;;;;;;;13.44;73.97;98870.44;5077304;28;19978;-71
2022/11/04 07:36:08;;;;;;;;;;;;;;;13.39;73.94;98851.75;5077310;28;19970;-71
2022/11/04 07:38:37;;;;;;;;;;;;;;;13.36;73.72;98861.25;5077164;28;20469;-71
2022/11/04 07:41:05;;;;;;;;;;;;;;;13.34;73.74;98852.78;5076741;28;19925;-72
2022/11/04 07:43:34;;;;;;;;;;;;;;;13.32;74.15;98849.38;5076652;28;19924;-71
2022/11/04 07:46:05;;;;;;;;;;;;;;;13.31;74.54;98842.59;5075666;28;19924;-71
2022/11/04 07:48:33;;;;;;;;;;;;;;;13.30;74.48;98846.03;5076636;28;19924;-71
2022/11/04 07:51:04;;;;;;;;;;;;;;;13.28;74.71;98843.50;5076477;28;19924;-71
2022/11/04 07:53:32;;;;;;;;;;;;;;;13.25;74.69;98838.44;5076888;28;20431;-71
2022/11/04 07:56:03;;;;;;;;;;;;;;;13.23;74.53;98842.78;5076674;28;19928;-71
2022/11/04 07:58:32;;;;;;;;;;;;;;;13.22;74.67;98838.53;5069844;28;19971;-71
2022/11/04 08:01:01;;;;;;;;;;;;;;;13.21;74.96;98836.84;5066133;28;19924;-71
2022/11/04 08:03:29;;;;;;;;;;;;;;;13.19;74.97;98837.78;5076221;28;19935;-72
2022/11/04 08:05:58;;;;;;;;;;;;;;;13.16;75.08;98832.72;5076061;28;19924;-71
2022/11/04 08:08:28;;;;;;;;;;;;;;;13.11;75.34;98835.41;5076936;28;19948;-71
2022/11/04 08:10:57;;;;;;;;;;;;;;;13.14;75.42;98839.59;5072261;28;19924;-72
2022/11/04 08:13:27;;;;;;;;;;;;;;;13.10;75.32;98833.69;5076341;28;19924;-71
2022/11/04 08:15:56;;;;;;;;;;;;;;;13.07;75.01;98828.66;5077009;28;20011;-71
2022/11/04 08:18:24;;;;;;;;;;;;;;;13.02;75.42;98837.31;5074613;28;19931;-71
2022/11/04 08:20:52;;;;;;;;;;;;;;;12.93;75.40;98840.94;5075944;28;19928;-71
2022/11/04 08:23:21;;;;;;;;;;;;;;;12.94;75.14;98824.69;5076036;28;20306;-71
2022/11/04 08:25:51;;;;;;;;;;;;;;;12.95;75.06;98828.94;5075811;28;20041;-71
2022/11/04 08:28:19;;;;;;;;;;;;;;;12.94;75.66;98822.13;5076312;28;20015;-71
2022/11/04 08:30:54;;;;;;;;;;;;;;;12.95;75.29;98826.38;5075968;28;19932;-71
2022/11/04 08:33:23;;;;;;;;;;;;;;;12.97;75.47;98811.81;5069117;28;19925;-72
2022/11/04 08:35:51;;;;;;;;;;;;;;;13.00;75.35;98816.84;5055635;28;19925;-70
2022/11/04 08:38:19;;;;;;;;;;;;;;;13.02;nan;98809.97;5055108;28;19929;-71
2022/11/04 08:40:48;;;;;;;;;;;;;;;13.04;74.95;98813.34;5055835;28;20287;-71
2022/11/04 08:43:18;;;;;;;;;;;;;;;13.10;74.27;98802.94;5055684;28;19925;-71
2022/11/04 08:45:46;;;;;;;;;;;;;;;13.14;73.93;98796.03;5055655;28;19924;-71
2022/11/04 08:48:15;;;;;;;;;;;;;;;13.18;73.34;98795.94;5055409;28;19925;-71
2022/11/04 08:50:44;;;;;;;;;;;;;;;13.24;72.97;98790.66;5055450;28;20370;-71
2022/11/04 08:53:12;;;;;;;;;;;;;;;13.32;73.67;98793.00;5055403;28;19925;-70
2022/11/04 08:55:40;;;;;;;;;;;;;;;13.33;73.75;98803.22;5055700;28;19983;-71
2022/11/04 08:58:09;;;;;;;;;;;;;;;13.33;73.33;98792.97;5055637;28;20302;-72
2022/11/04 09:00:39;;;;;;;;;;;;;;;13.36;73.30;98794.63;5058215;28;19952;-70
2022/11/04 09:03:08;;;;;;;;;;;;;;;13.37;72.78;98792.00;5068487;28;19932;-71
2022/11/04 09:05:42;;;;;;;;;;;;;;;13.39;72.19;98799.66;5059597;28;19925;-70
2022/11/04 09:08:11;;;;;;;;;;;;;;;13.37;71.84;98796.28;5055469;28;19928;-70
2022/11/04 09:10:41;;;;;;;;;;;;;;;13.37;72.09;98796.28;5055032;28;19924;-70
2022/11/04 09:13:10;;;;;;;;;;;;;;;13.36;72.11;98800.56;5055124;28;19924;-71
2022/11/04 09:15:42;;;;;;;;;;;;;;;13.33;72.13;98795.53;5055262;28;20267;-71
2022/11/04 09:18:10;;;;;;;;;;;;;;;13.31;72.29;98797.31;5054973;28;19956;-70
2022/11/04 09:20:40;;;;;;;;;;;;;;;13.32;72.44;98788.72;5055105;28;20012;-71
2022/11/04 09:23:09;;;;;;;;;;;;;;;13.33;72.50;98790.41;5061169;28;19936;-71
2022/11/04 09:25:40;;;;;;;;;;;;;;;13.32;72.34;98788.72;5074686;28;20298;-71
2022/11/04 09:28:08;;;;;;;;;;;;;;;13.33;72.54;98787.84;5074549;28;19932;-70
2022/11/04 09:30:37;;;;;;;;;;;;;;;13.30;72.37;98798.19;5074732;28;20345;-71
2022/11/04 09:33:07;;;;;;;;;;;;;;;13.25;72.93;98787.19;5074608;28;20007;-71
2022/11/04 09:35:36;;;;;;;;;;;;;;;13.24;72.77;98784.69;5075140;28;20026;-71
2022/11/04 09:38:04;;;;;;;;;;;;;;;13.26;72.98;98786.34;5074568;28;19929;-71
2022/11/04 09:40:35;;;;;;;;;;;;;;;13.27;73.24;98779.47;5074882;28;19924;-71
2022/11/04 09:43:14;;;;;;;;;;;;;;;13.24;72.95;98775.28;5074232;28;19924;-71
2022/11/04 09:45:43;;;;;;;;;;;;;;;13.25;73.41;98766.69;5075022;28;19928;-71
2022/11/04 09:48:19;;;;;;;;;;;;;;;13.26;73.47;98763.28;5074679;28;19935;-71
2022/11/04 09:50:50;;;;;;;;;;;;;;;13.28;73.29;98761.50;5074718;28;19924;-70
2022/11/04 09:53:21;;;;;;;;;;;;;;;13.31;73.12;98761.44;5074704;28;19925;-70
2022/11/04 09:55:53;;;;;;;;;;;;;;;13.30;73.15;98754.63;5074392;28;19924;-71
2022/11/04 09:58:22;;;;;;;;;;;;;;;13.32;73.54;98757.97;5074552;28;19955;-71
2022/11/04 10:00:57;;;;;;;;;;;;;;;13.33;73.34;98754.53;5073338;28;19925;-70
2022/11/04 10:03:40;;;;;;;;;;;;;;;13.31;73.75;98758.88;5071293;28;19924;-73
2022/11/04 10:06:30;;;;;;;;;;;;;;;13.32;73.44;98757.13;5074068;28;20302;-71
2022/11/04 10:09:04;;;;;;;;;;;;;;;13.32;73.74;98752.84;5074212;28;19925;-71
2022/11/04 10:11:38;;;;;;;;;;;;;;;13.36;74.09;98759.56;5074104;28;19936;-71
2022/11/04 10:14:18;;;;;;;;;;;;;;;13.30;74.27;98758.88;5074442;28;19928;-70
2022/11/04 10:16:56;;;;;;;;;;;;;;;13.19;74.56;98761.75;5074002;28;19932;-71
2022/11/04 10:19:35;;;;;;;;;;;;;;;13.20;74.95;98752.31;5074332;28;19961;-71
2022/11/04 10:22:09;;;;;;;;;;;;;;;13.20;75.16;98753.16;5072902;28;19960;-71
2022/11/04 10:24:42;;;;;;;;;;;;;;;13.14;75.07;98750.78;5071677;28;19959;-70
2022/11/04 10:27:13;;;;;;;;;;;;;;;13.09;75.39;98744.09;5074128;28;19967;-70
2022/11/04 10:29:43;;;;;;;;;;;;;;;13.07;75.26;98741.56;5074468;28;19983;-72
2022/11/04 10:32:15;;;;;;;;;;;;;;;13.07;75.52;98735.59;5073950;28;19924;-72
2022/11/04 10:34:53;;;;;;;;;;;;;;;13.08;75.50;98733.00;5068224;28;20362;-72
2022/11/04 10:37:24;;;;;;;;;;;;;;;13.10;75.83;98731.22;5062526;28;19974;-71
2022/11/04 10:39:59;;;;;;;;;;;;;;;13.10;75.99;98725.28;5054079;28;19978;-71
2022/11/04 10:42:28;;;;;;;;;;;;;;;13.08;76.06;98725.31;5073269;28;19925;-71
2022/11/04 10:44:56;;;;;;;;;;;;;;;13.06;76.10;98728.78;5074082;28;19928;-71
2022/11/04 10:47:33;;;;;;;;;;;;;;;13.03;76.48;98723.72;5072516;28;19929;-72
2022/11/04 10:50:12;;;;;;;;;;;;;;;12.89;76.45;98716.38;5073995;28;19955;-71
2022/11/04 10:53:09;;;;;;;;;;;;;;;12.84;76.81;98713.09;5073848;28;20378;-71
2022/11/04 10:55:41;;;;;;;;;;;;;;;12.84;77.13;98712.28;5073865;28;20324;-71
2022/11/04 10:58:15;;;;;;;;;;;;;;;12.79;77.74;98708.09;5073708;28;19924;-72
2022/11/04 11:00:43;;;;;;;;;;;;;;;12.78;78.55;98708.16;5073525;28;19928;-72
2022/11/04 11:03:22;;;;;;;;;;;;;;;12.78;78.58;98705.59;5073448;28;19974;-72
2022/11/04 11:05:51;;;;;;;;;;;;;;;12.79;78.95;98704.69;5073871;28;20448;-73
2022/11/04 11:08:30;;;;;;;;;;;;;;;12.77;79.70;98711.56;5073808;28;19924;-73
2022/11/04 11:10:58;;;;;;;;;;;;;;;12.72;79.84;98693.75;5073522;28;19928;-72
2022/11/04 11:13:28;;;;;;;;;;;;;;;12.69;79.78;98693.03;5073295;28;19932;-73
2022/11/04 11:16:04;;;;;;;;;;;;;;;12.66;80.43;98695.66;5066876;28;19925;-73
2022/11/04 11:18:33;;;;;;;;;;;;;;;12.62;80.61;98686.38;5067030;28;19929;-74
2022/11/04 11:21:06;;;;;;;;;;;;;;;12.61;80.84;98684.69;5073181;28;19924;-72
2022/11/04 11:23:44;;;;;;;;;;;;;;;12.58;81.35;98677.06;5066620;28;19932;-72
2022/11/04 11:26:14;;;;;;;;;;;;;;;12.55;81.53;98675.41;5056274;28;19929;-72
2022/11/04 11:28:48;;;;;;;;;;;;;;;12.53;82.03;98673.78;5063226;28;19935;-72
2022/11/04 11:31:25;;;;;;;;;;;;;;;12.51;82.31;98662.75;5070246;28;19964;-72
2022/11/04 11:33:56;;;;;;;;;;;;;;;12.51;82.14;98667.88;5073602;28;19924;-72
2022/11/04 11:36:26;;;;;;;;;;;;;;;12.48;82.51;98662.81;5073321;28;19925;-73
2022/11/04 11:39:00;;;;;;;;;;;;;;;12.47;82.44;98661.16;5073810;28;20372;-72
2022/11/04 11:41:31;;;;;;;;;;;;;;;12.47;82.57;98650.91;5076925;28;19924;-73
2022/11/04 11:44:02;;;;;;;;;;;;;;;12.49;82.76;98655.13;5058705;28;19931;-71
2022/11/04 11:46:33;;;;;;;;;;;;;;;12.51;82.74;98645.69;5057172;28;19925;-72
2022/11/04 11:49:02;;;;;;;;;;;;;;;12.53;82.85;98645.63;5057280;28;19924;-72
2022/11/04 11:51:32;;;;;;;;;;;;;;;12.55;82.80;98637.03;5065746;28;20282;-73
2022/11/04 11:54:14;;;;;;;;;;;;;;;12.58;82.60;98644.66;5058031;28;19971;-73
2022/11/04 11:56:45;;;;;;;;;;;;;;;12.64;82.77;98643.66;5056609;28;19974;-74
2022/11/04 11:59:38;;;;;;;;;;;;;;;12.66;83.06;98637.63;5072695;28;20040;-73
2022/11/04 12:02:31;;;;;;;;;;;;;;;12.71;83.32;98640.06;5073407;28;19932;-73
2022/11/04 12:05:00;;;;;;;;;;;;;;;12.70;83.42;98643.47;5056506;28;19925;-73
2022/11/04 12:07:52;;;;;;;;;;;;;;;12.67;84.16;98628.19;5055433;28;19925;-73
2022/11/04 12:10:45;;;;;;;;;;;;;;;12.67;84.28;98633.31;5055615;28;19925;-73
2022/11/04 12:13:23;;;;;;;;;;;;;;;12.71;84.52;98624.69;5055955;28;19926;-73
2022/11/04 12:16:06;;;;;;;;;;;;;;;12.72;85.10;98623.78;5056379;28;19929;-73
2022/11/04 12:18:42;;;;;;;;;;;;;;;12.70;84.83;98617.88;5056105;28;19936;-73
2022/11/04 12:21:14;;;;;;;;;;;;;;;12.70;85.02;98618.72;5056502;28;19925;-73
2022/11/04 12:23:49;;;;;;;;;;;;;;;12.71;85.40;98610.19;5055691;28;19925;-74
2022/11/04 12:26:28;;;;;;;;;;;;;;;12.72;85.77;98605.88;5055520;28;19955;-73
2022/11/04 12:29:02;;;;;;;;;;;;;;;12.71;85.79;98599.09;5055665;28;19925;-73
2022/11/04 12:31:34;;;;;;;;;;;;;;;12.71;85.75;98588.84;5056130;28;19979;-74
2022/11/04 12:34:08;;;;;;;;;;;;;;;12.73;85.74;98597.31;5056135;28;20325;-74
2022/11/04 12:36:52;;;;;;;;;;;;;;;12.72;85.73;98593.06;5055748;28;19925;-73
2022/11/04 12:39:29;;;;;;;;;;;;;;;12.74;86.02;98583.66;5055496;28;19932;-73
2022/11/04 12:42:04;;;;;;;;;;;;;;;12.77;85.93;98573.31;5055447;28;20337;-74
2022/11/04 12:44:53;;;;;;;;;;;;;;;12.82;85.85;98561.22;5055516;28;20024;-73
2022/11/04 12:47:30;;;;;;;;;;;;;;;12.86;85.94;98555.13;5055898;28;20314;-73
2022/11/04 12:50:20;;;;;;;;;;;;;;;12.88;85.66;98540.59;5062927;28;20302;-73
2022/11/04 12:52:59;;;;;;;;;;;;;;;12.95;86.14;98547.22;5072711;28;19973;-72
2022/11/04 12:55:40;;;;;;;;;;;;;;;12.99;85.74;98561.59;5075758;28;20370;-74
2022/11/04 12:58:22;;;;;;;;;;;;;;;13.06;85.65;98560.56;5075690;28;20011;-73
2022/11/04 13:00:55;;;;;;;;;;;;;;;13.08;85.25;98571.59;5075421;28;19924;-73
2022/11/04 13:03:30;;;;;;;;;;;;;;;13.06;84.74;98555.44;5075219;28;19994;-73
2022/11/04 13:06:03;;;;;;;;;;;;;;;13.03;84.47;98547.00;5075296;28;19928;-74
2022/11/04 13:08:34;;;;;;;;;;;;;;;13.03;84.24;98558.06;5074569;28;19924;-75
2022/11/04 13:11:21;;;;;;;;;;;;;;;13.04;84.39;98552.06;5074771;28;19925;-76
2022/11/04 13:13:58;;;;;;;;;;;;;;;13.06;84.33;98547.75;5075327;28;19947;-74
2022/11/04 13:16:31;;;;;;;;;;;;;;;13.07;84.25;98551.16;5074948;28;19924;-75
2022/11/04 13:19:01;;;;;;;;;;;;;;;13.10;84.43;98551.91;5075284;28;19924;-75
2022/11/04 13:21:34;;;;;;;;;;;;;;;13.11;84.26;98545.91;5074665;28;19931;-76
2022/11/04 13:24:04;;;;;;;;;;;;;;;13.11;83.99;98547.63;5074773;28;19931;-75
2022/11/04 13:26:32;;;;;;;;;;;;;;;13.09;83.74;98537.44;5074168;28;19924;-75
2022/11/04 13:29:06;;;;;;;;;;;;;;;13.12;84.23;98537.34;5067219;28;19924;-74
2022/11/04 13:31:44;;;;;;;;;;;;;;;13.12;83.62;98534.78;5055189;28;19929;-73
2022/11/04 13:34:19;;;;;;;;;;;;;;;13.14;83.57;98533.03;5054708;28;19925;-74
2022/11/04 13:36:58;;;;;;;;;;;;;;;13.18;83.94;98524.34;5053713;28;19925;-74
2022/11/04 13:39:29;;;;;;;;;;;;;;;13.20;83.67;98522.56;5054705;28;19968;-74
2022/11/04 13:42:15;;;;;;;;;;;;;;;13.22;83.55;98522.56;5060107;28;20020;-74
2022/11/04 13:44:47;;;;;;;;;;;;;;;13.20;83.72;98517.44;5074366;28;19971;-74
2022/11/04 13:47:17;;;;;;;;;;;;;;;13.19;83.84;98510.66;5073025;28;19924;-74